createdAt,value
2022-10-21T00:01:55.877Z,48.31
2022-10-21T00:03:58.373Z,48.54
2022-10-21T00:06:00.388Z,48.21
2022-10-21T00:08:02.700Z,48.27
2022-10-21T00:10:05.961Z,48.21
2022-10-21T00:12:08.276Z,48.34
2022-10-21T00:14:35.436Z,48.83
2022-10-21T00:16:37.962Z,47.94
2022-10-21T00:18:41.394Z,47.93
2022-10-21T00:20:43.489Z,48.07
2022-10-21T00:22:45.568Z,48.40
2022-10-21T00:24:48.109Z,48.29
2022-10-21T00:26:50.982Z,48.44
2022-10-21T00:28:59.309Z,48.71
2022-10-21T00:31:01.838Z,48.58
2022-10-21T00:33:04.051Z,48.66
2022-10-21T00:35:06.561Z,48.36
2022-10-21T00:37:12.029Z,48.44
2022-10-21T00:39:14.019Z,48.33
2022-10-21T00:41:19.987Z,48.81
2022-10-21T00:43:22.477Z,49.09
2022-10-21T00:45:29.651Z,49.54
2022-10-21T00:47:38.244Z,49.60
2022-10-21T00:49:46.425Z,49.29
2022-10-21T00:51:52.930Z,50.06
2022-10-21T00:53:55.115Z,50.11
2022-10-21T00:56:04.014Z,50.65
2022-10-21T00:58:08.764Z,50.72
2022-10-21T01:00:14.165Z,51.28
2022-10-21T01:02:16.762Z,51.52
2022-10-21T01:04:22.652Z,52.25
2022-10-21T01:06:26.438Z,51.69
2022-10-21T01:08:29.556Z,51.71
2022-10-21T01:10:31.971Z,51.58
2022-10-21T01:12:50.013Z,51.34
2022-10-21T01:14:58.406Z,51.97
2022-10-21T01:17:15.500Z,52.27
2022-10-21T01:19:36.308Z,51.82
2022-10-21T01:21:56.188Z,52.04
2022-10-21T01:26:05.930Z,51.00
2022-10-21T01:28:15.664Z,51.46
2022-10-21T01:30:19.474Z,51.69
2022-10-21T01:32:42.121Z,51.05
2022-10-21T01:34:56.332Z,51.85
2022-10-21T01:37:04.605Z,52.27
2022-10-21T01:39:31.017Z,51.73
2022-10-21T01:41:48.732Z,51.28
2022-10-21T01:44:14.398Z,51.41
2022-10-21T01:46:26.194Z,51.50
2022-10-21T01:48:34.009Z,51.31
2022-10-21T01:50:42.568Z,50.47
2022-10-21T01:52:49.977Z,51.28
2022-10-21T01:54:59.176Z,51.78
2022-10-21T02:00:50.900Z,50.98
2022-10-21T02:02:52.997Z,51.70
2022-10-21T02:04:56.371Z,51.47
2022-10-21T02:06:58.698Z,51.41
2022-10-21T02:09:00.965Z,50.77
2022-10-21T02:11:07.151Z,51.04
2022-10-21T02:13:10.999Z,51.23
2022-10-21T02:15:15.699Z,50.78
2022-10-21T02:17:20.241Z,51.28
2022-10-21T02:19:22.173Z,50.92
2022-10-21T02:21:28.370Z,50.87
2022-10-21T02:23:43.931Z,51.15
2022-10-21T02:25:50.749Z,51.01
2022-10-21T02:27:53.440Z,51.14
2022-10-21T02:34:06.349Z,52.08
2022-10-21T02:40:29.236Z,51.93
2022-10-21T02:42:40.167Z,51.30
2022-10-21T02:48:37.485Z,50.92
2022-10-21T02:50:39.719Z,51.64
2022-10-21T02:52:41.666Z,51.82
2022-10-21T02:54:43.454Z,51.25
2022-10-21T02:56:45.230Z,51.95
2022-10-21T02:58:47.090Z,51.62
2022-10-21T03:00:49.343Z,51.69
2022-10-21T03:02:51.178Z,51.35
2022-10-21T03:04:53.055Z,51.41
2022-10-21T03:06:55.137Z,51.38
2022-10-21T03:08:57.372Z,51.29
2022-10-21T03:10:59.566Z,51.03
2022-10-21T03:13:01.575Z,51.56
2022-10-21T03:15:04.061Z,51.90
2022-10-21T03:17:06.208Z,51.30
2022-10-21T03:23:08.146Z,51.83
2022-10-21T03:25:10.344Z,51.43
2022-10-21T03:27:12.252Z,51.42
2022-10-21T03:29:14.349Z,51.53
2022-10-21T03:31:16.365Z,51.13
2022-10-21T03:33:18.251Z,50.59
2022-10-21T03:35:20.080Z,50.74
2022-10-21T03:37:21.924Z,50.42
2022-10-21T03:39:23.854Z,50.69
2022-10-21T03:41:25.805Z,50.37
2022-10-21T03:43:27.625Z,50.33
2022-10-21T03:49:02.828Z,50.33
2022-10-21T03:51:08.754Z,50.31
2022-10-21T03:53:24.432Z,50.37
2022-10-21T03:55:32.545Z,50.71
2022-10-21T03:57:34.401Z,50.70
2022-10-21T03:59:36.273Z,50.55
2022-10-21T04:01:38.120Z,50.68
2022-10-21T04:03:41.296Z,50.72
2022-10-21T04:05:43.170Z,50.22
2022-10-21T04:07:49.290Z,50.70
2022-10-21T04:09:54.072Z,50.14
2022-10-21T04:11:56.118Z,50.15
2022-10-21T04:13:58.197Z,50.46
2022-10-21T04:16:02.896Z,50.25
2022-10-21T04:18:06.550Z,50.06
2022-10-21T04:20:09.759Z,50.61
2022-10-21T04:22:11.722Z,50.54
2022-10-21T04:24:13.843Z,50.68
2022-10-21T04:26:15.751Z,50.48
2022-10-21T04:28:17.606Z,51.11
2022-10-21T04:30:19.956Z,50.83
2022-10-21T04:32:21.667Z,50.63
2022-10-21T04:34:23.558Z,50.60
2022-10-21T04:36:25.525Z,50.97
2022-10-21T04:38:28.190Z,51.16
2022-10-21T04:40:30.442Z,51.29
2022-10-21T04:42:32.593Z,51.86
2022-10-21T04:44:34.481Z,51.30
2022-10-21T04:46:36.465Z,51.73
2022-10-21T04:48:38.364Z,51.15
2022-10-21T04:50:40.450Z,51.01
2022-10-21T04:52:42.351Z,51.06
2022-10-21T04:54:44.296Z,51.61
2022-10-21T04:56:46.216Z,52.16
2022-10-21T04:58:48.299Z,51.80
2022-10-21T05:04:45.048Z,52.74
2022-10-21T05:06:46.997Z,53.27
2022-10-21T05:08:48.908Z,54.03
2022-10-21T05:10:58.368Z,53.57
2022-10-21T05:13:00.645Z,53.38
2022-10-21T05:15:02.602Z,53.39
2022-10-21T05:17:04.607Z,53.30
2022-10-21T05:19:06.716Z,53.72
2022-10-21T05:21:08.876Z,53.73
2022-10-21T05:23:10.921Z,54.19
2022-10-21T05:25:15.253Z,54.21
2022-10-21T05:27:17.276Z,53.30
2022-10-21T05:29:44.469Z,54.14
2022-10-21T05:31:46.290Z,53.37
2022-10-21T05:33:48.225Z,53.32
2022-10-21T05:36:05.121Z,54.28
2022-10-21T05:38:07.060Z,53.23
2022-10-21T05:40:09.353Z,52.91
2022-10-21T05:42:11.350Z,53.03
2022-10-21T05:44:13.372Z,52.66
2022-10-21T05:46:15.327Z,52.52
2022-10-21T05:48:20.542Z,52.16
2022-10-21T05:50:25.085Z,51.82
2022-10-21T05:52:26.953Z,51.91
2022-10-21T05:54:28.816Z,51.56
2022-10-21T05:56:31.345Z,51.45
2022-10-21T05:58:35.021Z,51.26
2022-10-21T06:00:36.939Z,51.30
2022-10-21T06:02:39.165Z,50.83
2022-10-21T06:04:41.279Z,50.93
2022-10-21T06:06:43.305Z,51.20
2022-10-21T06:08:45.267Z,50.45
2022-10-21T06:10:47.400Z,50.50
2022-10-21T06:12:49.327Z,50.33
2022-10-21T06:14:51.333Z,49.80
2022-10-21T06:16:53.324Z,48.89
2022-10-21T06:18:57.910Z,49.20
2022-10-21T06:21:00.098Z,49.01
2022-10-21T06:23:02.096Z,49.12
2022-10-21T06:25:04.245Z,48.98
2022-10-21T06:27:06.987Z,48.34
2022-10-21T06:29:08.929Z,47.72
2022-10-21T06:31:16.588Z,47.91
2022-10-21T06:33:22.109Z,48.76
2022-10-21T06:35:26.687Z,49.70
2022-10-21T06:37:28.433Z,49.57
2022-10-21T06:39:30.667Z,49.72
2022-10-21T06:41:32.557Z,49.93
2022-10-21T06:43:35.310Z,50.07
2022-10-21T06:45:37.801Z,49.82
2022-10-21T06:47:40.195Z,49.91
2022-10-21T06:49:42.440Z,48.87
2022-10-21T06:51:44.371Z,49.22
2022-10-21T06:53:47.206Z,48.65
2022-10-21T06:55:49.064Z,47.75
2022-10-21T06:57:51.430Z,48.42
2022-10-21T06:59:53.379Z,48.57
2022-10-21T07:02:00.044Z,47.94
2022-10-21T07:04:04.448Z,48.63
2022-10-21T07:06:07.001Z,48.72
2022-10-21T07:08:11.907Z,48.66
2022-10-21T07:10:14.862Z,48.49
2022-10-21T07:12:17.166Z,48.46
2022-10-21T07:14:19.189Z,48.67
2022-10-21T07:16:27.747Z,48.78
2022-10-21T07:18:30.893Z,49.40
2022-10-21T07:20:34.479Z,49.36
2022-10-21T07:22:36.439Z,49.13
2022-10-21T07:24:38.343Z,49.63
2022-10-21T07:26:41.179Z,49.21
2022-10-21T07:28:47.086Z,49.52
2022-10-21T07:30:49.292Z,49.43
2022-10-21T07:32:51.692Z,49.50
2022-10-21T07:34:53.607Z,48.84
2022-10-21T07:36:55.490Z,49.03
2022-10-21T07:39:03.850Z,48.17
2022-10-21T07:41:06.177Z,48.25
2022-10-21T07:43:09.172Z,48.12
2022-10-21T07:45:12.879Z,48.02
2022-10-21T07:47:14.745Z,47.78
2022-10-21T07:49:18.950Z,47.66
2022-10-21T07:51:28.362Z,47.47
2022-10-21T07:53:32.324Z,47.19
2022-10-21T07:55:36.552Z,47.47
2022-10-21T07:57:38.793Z,45.56
2022-10-21T07:59:40.897Z,45.68
2022-10-21T08:03:55.967Z,44.85
2022-10-21T08:05:58.132Z,45.68
2022-10-21T08:08:00.372Z,45.58
2022-10-21T08:10:02.821Z,45.03
2022-10-21T08:12:04.723Z,44.83
2022-10-21T08:14:08.506Z,45.09
2022-10-21T08:16:10.430Z,44.85
2022-10-21T08:18:12.438Z,44.90
2022-10-21T08:20:14.358Z,45.08
2022-10-21T08:22:16.199Z,44.56
2022-10-21T08:24:18.119Z,43.47
2022-10-21T08:26:20.141Z,44.48
2022-10-21T08:28:24.536Z,44.26
2022-10-21T08:30:32.284Z,43.96
2022-10-21T08:32:34.282Z,43.84
2022-10-21T08:34:36.313Z,43.07
2022-10-21T08:36:39.125Z,42.83
2022-10-21T08:42:42.667Z,42.66
2022-10-21T08:44:46.602Z,42.20
2022-10-21T08:47:05.757Z,41.05
2022-10-21T08:49:16.529Z,41.53
2022-10-21T08:51:32.209Z,42.23
2022-10-21T08:53:45.366Z,40.83
2022-10-21T08:55:48.312Z,41.80
2022-10-21T08:57:53.941Z,40.17
2022-10-21T08:59:59.209Z,40.46
2022-10-21T09:02:25.071Z,39.73
2022-10-21T09:05:12.078Z,39.92
2022-10-21T09:07:28.413Z,40.01
2022-10-21T09:09:52.415Z,39.47
2022-10-21T09:12:14.374Z,38.79
2022-10-21T09:14:44.077Z,39.08
2022-10-21T09:16:54.533Z,39.07
2022-10-21T09:19:34.287Z,38.97
2022-10-21T09:21:45.527Z,39.45
2022-10-21T09:23:57.248Z,39.44
2022-10-21T09:26:06.368Z,39.66
2022-10-21T09:28:14.311Z,39.83
2022-10-21T09:30:24.548Z,40.20
2022-10-21T09:32:32.668Z,39.74
2022-10-21T09:34:58.094Z,40.78
2022-10-21T09:37:02.843Z,40.60
2022-10-21T09:39:22.186Z,39.20
2022-10-21T09:41:30.433Z,39.97
2022-10-21T09:43:33.275Z,39.75
2022-10-21T09:45:44.364Z,40.28
2022-10-21T09:47:52.100Z,39.72
2022-10-21T09:50:09.817Z,39.56
2022-10-21T09:52:12.349Z,40.82
2022-10-21T09:54:22.258Z,40.98
2022-10-21T09:56:26.132Z,39.58
2022-10-21T09:58:36.777Z,38.74
2022-10-21T10:00:53.112Z,39.73
2022-10-21T10:03:06.804Z,39.97
2022-10-21T10:05:36.308Z,38.63
2022-10-21T10:07:38.415Z,39.78
2022-10-21T10:09:46.151Z,38.98
2022-10-21T10:12:12.637Z,38.44
2022-10-21T10:14:32.616Z,38.77
2022-10-21T10:16:34.802Z,39.14
2022-10-21T10:18:36.984Z,39.27
2022-10-21T10:20:38.933Z,39.78
2022-10-21T10:22:43.199Z,39.68
2022-10-21T10:24:45.561Z,39.55
2022-10-21T10:26:48.745Z,39.63
2022-10-21T10:29:00.840Z,38.48
2022-10-21T10:35:05.032Z,39.23
2022-10-21T10:37:22.970Z,38.44
2022-10-21T10:39:30.764Z,39.05
2022-10-21T10:41:38.276Z,38.58
2022-10-21T10:43:47.929Z,38.21
2022-10-21T10:46:10.424Z,35.40
2022-10-21T10:48:23.105Z,36.64
2022-10-21T10:50:44.566Z,35.92
2022-10-21T10:52:46.462Z,37.80
2022-10-21T10:54:49.758Z,37.57
2022-10-21T10:57:04.128Z,36.38
2022-10-21T10:59:14.706Z,37.50
2022-10-21T11:01:41.975Z,35.68
2022-10-21T11:03:55.198Z,36.59
2022-10-21T11:06:07.305Z,34.82
2022-10-21T11:08:29.748Z,36.26
2022-10-21T11:11:03.657Z,35.83
2022-10-21T11:13:12.696Z,35.43
2022-10-21T11:15:16.566Z,35.55
2022-10-21T11:17:21.752Z,34.82
2022-10-21T11:19:36.049Z,35.62
2022-10-21T11:21:56.536Z,35.51
2022-10-21T11:24:19.505Z,35.30
2022-10-21T11:26:40.348Z,35.09
2022-10-21T11:29:10.580Z,35.56
2022-10-21T11:32:09.707Z,34.66
2022-10-21T11:34:37.029Z,36.46
2022-10-21T11:36:57.574Z,35.08
2022-10-21T11:39:29.436Z,34.50
2022-10-21T11:42:06.635Z,35.06
2022-10-21T11:44:48.522Z,35.55
2022-10-21T11:47:12.461Z,34.66
2022-10-21T11:49:38.153Z,34.86
2022-10-21T11:51:43.401Z,35.07
2022-10-21T11:54:03.656Z,35.44
2022-10-21T11:56:13.254Z,35.01
2022-10-21T11:58:18.293Z,34.52
2022-10-21T12:00:27.116Z,33.28
2022-10-21T12:03:00.962Z,33.51
2022-10-21T12:05:21.856Z,35.15
2022-10-21T12:07:40.944Z,35.83
2022-10-21T12:10:00.015Z,35.03
2022-10-21T12:12:09.738Z,33.79
2022-10-21T12:14:43.533Z,33.81
2022-10-21T12:16:47.019Z,34.43
2022-10-21T12:18:56.222Z,33.09
2022-10-21T12:20:59.858Z,33.72
2022-10-21T12:23:06.169Z,33.06
2022-10-21T12:25:16.964Z,33.58
2022-10-21T12:28:10.326Z,33.61
2022-10-21T12:30:15.242Z,34.77
2022-10-21T12:32:31.844Z,34.79
2022-10-21T12:34:34.615Z,35.28
2022-10-21T12:37:26.885Z,35.27
2022-10-21T12:39:34.510Z,35.13
2022-10-21T12:41:38.541Z,35.62
2022-10-21T12:43:41.839Z,35.54
2022-10-21T12:45:44.395Z,35.95
2022-10-21T12:47:46.654Z,35.16
2022-10-21T12:50:23.607Z,33.54
2022-10-21T12:52:25.834Z,34.47
2022-10-21T12:54:31.103Z,34.74
2022-10-21T12:56:51.355Z,33.45
2022-10-21T12:59:03.415Z,33.85
2022-10-21T13:01:27.291Z,34.25
2022-10-21T13:03:51.285Z,34.05
2022-10-21T13:05:53.077Z,34.04
2022-10-21T13:08:23.016Z,34.14
2022-10-21T13:10:26.506Z,34.85
2022-10-21T13:12:28.457Z,34.11
2022-10-21T13:14:45.737Z,33.51
2022-10-21T13:16:48.502Z,34.44
2022-10-21T13:18:50.578Z,34.67
2022-10-21T13:20:58.805Z,34.49
2022-10-21T13:23:31.794Z,34.29
2022-10-21T13:25:36.358Z,35.03
2022-10-21T13:27:39.600Z,35.19
2022-10-21T13:29:45.653Z,35.14
2022-10-21T13:31:48.029Z,35.18
2022-10-21T13:33:55.600Z,35.46
2022-10-21T13:36:04.260Z,34.25
2022-10-21T13:38:22.318Z,34.88
2022-10-21T13:40:30.834Z,34.38
2022-10-21T13:42:40.674Z,34.64
2022-10-21T13:44:53.351Z,33.74
2022-10-21T13:46:55.462Z,34.63
2022-10-21T13:49:01.503Z,34.46
2022-10-21T13:51:16.036Z,33.95
2022-10-21T13:53:18.112Z,34.61
2022-10-21T13:55:23.128Z,34.67
2022-10-21T13:57:32.504Z,34.95
2022-10-21T13:59:35.128Z,34.71
2022-10-21T14:01:52.765Z,34.34
2022-10-21T14:04:14.641Z,34.81
2022-10-21T14:06:26.064Z,34.54
2022-10-21T14:08:33.223Z,34.91
2022-10-21T14:10:36.403Z,35.49
2022-10-21T14:12:46.549Z,35.07
2022-10-21T14:14:49.796Z,34.97
2022-10-21T14:16:55.877Z,34.89
2022-10-21T14:19:01.812Z,34.94
2022-10-21T14:21:05.374Z,35.00
2022-10-21T14:23:15.934Z,34.83
2022-10-21T14:25:19.116Z,34.65
2022-10-21T14:27:46.945Z,34.58
2022-10-21T14:29:49.467Z,34.77
2022-10-21T14:31:51.609Z,34.41
2022-10-21T14:33:54.062Z,34.58
2022-10-21T14:36:05.438Z,33.93
2022-10-21T14:38:29.528Z,33.67
2022-10-21T14:40:37.887Z,33.81
2022-10-21T14:42:41.667Z,34.47
2022-10-21T14:44:46.681Z,34.09
2022-10-21T14:46:51.419Z,34.06
2022-10-21T14:49:03.590Z,34.12
2022-10-21T14:51:13.575Z,34.73
2022-10-21T14:53:21.590Z,34.71
2022-10-21T14:55:30.064Z,34.82
2022-10-21T14:57:40.750Z,34.84
2022-10-21T14:59:43.843Z,35.41
2022-10-21T15:01:46.193Z,35.81
2022-10-21T15:03:50.153Z,35.65
2022-10-21T15:06:10.307Z,36.74
2022-10-21T15:08:21.375Z,36.57
2022-10-21T15:10:23.477Z,36.58
2022-10-21T15:12:26.010Z,36.91
2022-10-21T15:14:31.954Z,36.79
2022-10-21T15:18:42.482Z,37.30
2022-10-21T15:21:05.792Z,37.87
2022-10-21T15:23:20.037Z,38.60
2022-10-21T15:25:24.776Z,37.86
2022-10-21T15:27:36.599Z,38.63
2022-10-21T15:29:45.008Z,39.91
2022-10-21T15:31:47.412Z,39.06
2022-10-21T15:33:51.043Z,38.76
2022-10-21T15:36:09.716Z,39.56
2022-10-21T15:38:11.986Z,39.61
2022-10-21T15:40:14.223Z,39.31
2022-10-21T15:42:18.624Z,38.72
2022-10-21T15:44:31.822Z,38.90
2022-10-21T15:46:35.589Z,39.21
2022-10-21T15:48:37.726Z,39.32
2022-10-21T15:50:43.018Z,39.21
2022-10-21T15:52:45.376Z,38.94
2022-10-21T15:54:47.755Z,39.59
2022-10-21T15:56:52.457Z,39.22
2022-10-21T15:58:54.765Z,38.95
2022-10-21T16:00:56.815Z,38.96
2022-10-21T16:02:59.442Z,38.53
2022-10-21T16:05:01.510Z,39.91
2022-10-21T16:07:09.405Z,39.39
2022-10-21T16:09:16.754Z,40.25
2022-10-21T16:11:34.645Z,39.94
2022-10-21T16:14:10.250Z,40.37
2022-10-21T16:16:20.993Z,39.48
2022-10-21T16:18:22.926Z,39.45
2022-10-21T16:20:29.669Z,39.72
2022-10-21T16:22:31.734Z,40.44
2022-10-21T16:24:33.654Z,39.99
2022-10-21T16:26:40.487Z,39.79
2022-10-21T16:28:43.071Z,39.79
2022-10-21T16:30:45.180Z,40.59
2022-10-21T16:32:47.764Z,40.29
2022-10-21T16:34:49.747Z,41.29
2022-10-21T16:36:51.765Z,41.65
2022-10-21T16:38:54.061Z,41.08
2022-10-21T16:40:56.251Z,40.88
2022-10-21T16:42:58.190Z,41.04
2022-10-21T16:45:00.257Z,41.27
2022-10-21T16:47:03.424Z,41.50
2022-10-21T16:49:13.099Z,41.96
2022-10-21T16:51:15.792Z,41.20
2022-10-21T16:53:17.955Z,41.45
2022-10-21T16:55:20.288Z,41.48
2022-10-21T16:57:22.278Z,41.67
2022-10-21T16:59:24.218Z,41.17
2022-10-21T17:01:26.523Z,41.57
2022-10-21T17:03:28.442Z,41.74
2022-10-21T17:05:30.766Z,41.84
2022-10-21T17:07:34.124Z,41.92
2022-10-21T17:09:36.320Z,42.18
2022-10-21T17:11:40.043Z,42.69
2022-10-21T17:13:43.323Z,42.28
2022-10-21T17:15:45.747Z,42.47
2022-10-21T17:17:47.768Z,42.45
2022-10-21T17:19:50.295Z,42.47
2022-10-21T17:25:45.577Z,43.54
2022-10-21T17:27:47.491Z,43.82
2022-10-21T17:29:49.387Z,45.00
2022-10-21T17:31:51.813Z,44.64
2022-10-21T17:33:57.037Z,44.99
2022-10-21T17:35:59.022Z,44.15
2022-10-21T17:38:01.723Z,44.26
2022-10-21T17:40:03.778Z,44.34
2022-10-21T17:42:06.024Z,44.87
2022-10-21T17:44:12.405Z,45.13
2022-10-21T17:46:18.218Z,44.90
2022-10-21T17:48:20.101Z,44.54
2022-10-21T17:50:26.152Z,44.55
2022-10-21T17:52:28.042Z,44.33
2022-10-21T17:54:31.721Z,44.49
2022-10-21T17:56:36.468Z,44.75
2022-10-21T17:58:38.449Z,45.08
2022-10-21T18:00:43.767Z,44.98
2022-10-21T18:02:46.785Z,45.30
2022-10-21T18:04:48.633Z,45.26
2022-10-21T18:06:50.679Z,44.94
2022-10-21T18:08:53.134Z,45.28
2022-10-21T18:10:57.738Z,45.19
2022-10-21T18:12:59.780Z,45.32
2022-10-21T18:15:02.320Z,45.54
2022-10-21T18:17:04.860Z,46.18
2022-10-21T18:19:06.997Z,45.48
2022-10-21T18:21:12.492Z,46.39
2022-10-21T18:23:14.994Z,46.37
2022-10-21T18:25:17.137Z,46.37
2022-10-21T18:27:19.169Z,46.37
2022-10-21T18:29:22.271Z,46.25
2022-10-21T18:31:26.402Z,46.52
2022-10-21T18:33:28.656Z,46.80
2022-10-21T18:35:30.563Z,46.18
2022-10-21T18:37:34.182Z,46.48
2022-10-21T18:39:36.460Z,46.79
2022-10-21T18:41:38.753Z,46.39
2022-10-21T18:43:40.688Z,46.61
2022-10-21T18:45:46.151Z,46.78
2022-10-21T18:47:49.902Z,46.73
2022-10-21T18:49:51.787Z,47.07
2022-10-21T18:51:53.674Z,46.76
2022-10-21T18:53:55.921Z,47.11
2022-10-21T18:55:57.680Z,47.34
2022-10-21T18:57:59.607Z,47.48
2022-10-21T19:00:01.613Z,47.28
2022-10-21T19:02:04.176Z,48.28
2022-10-21T19:04:06.779Z,47.23
2022-10-21T19:06:32.010Z,48.42
2022-10-21T19:08:33.897Z,47.82
2022-10-21T19:10:35.738Z,48.27
2022-10-21T19:12:37.640Z,48.08
2022-10-21T19:14:39.376Z,48.13
2022-10-21T19:16:42.268Z,48.03
2022-10-21T19:18:44.038Z,48.12
2022-10-21T19:20:46.039Z,48.19
2022-10-21T19:22:47.955Z,48.25
2022-10-21T19:24:49.794Z,47.86
2022-10-21T19:26:56.598Z,48.56
2022-10-21T19:29:09.681Z,48.46
2022-10-21T19:31:11.976Z,48.02
2022-10-21T19:33:13.809Z,48.48
2022-10-21T19:35:15.681Z,48.28
2022-10-21T19:37:17.573Z,48.22
2022-10-21T19:39:20.081Z,48.19
2022-10-21T19:41:23.157Z,47.97
2022-10-21T19:43:26.021Z,47.94
2022-10-21T19:45:28.131Z,47.98
2022-10-21T19:47:31.366Z,48.17
2022-10-21T19:49:34.024Z,47.99
2022-10-21T19:51:37.254Z,48.13
2022-10-21T19:53:40.122Z,48.34
2022-10-21T19:55:42.069Z,48.59
2022-10-21T19:57:43.927Z,48.71
2022-10-21T19:59:45.808Z,49.20
2022-10-21T20:01:47.843Z,49.15
2022-10-21T20:04:32.560Z,50.59
2022-10-21T20:06:37.985Z,49.29
2022-10-21T20:08:40.211Z,49.13
2022-10-21T20:10:42.105Z,50.18
2022-10-21T20:12:43.939Z,50.60
2022-10-21T20:14:45.801Z,49.81
2022-10-21T20:16:49.093Z,50.01
2022-10-21T20:18:51.294Z,50.29
2022-10-21T20:20:54.467Z,50.14
2022-10-21T20:22:56.550Z,49.71
2022-10-21T20:24:58.416Z,49.98
2022-10-21T20:27:02.281Z,49.98
2022-10-21T20:29:04.385Z,49.74
2022-10-21T20:31:10.407Z,50.24
2022-10-21T20:33:12.682Z,50.58
2022-10-21T20:35:14.628Z,50.35
2022-10-21T20:37:16.754Z,50.11
2022-10-21T20:39:18.711Z,50.36
2022-10-21T20:41:23.671Z,50.03
2022-10-21T20:43:28.485Z,49.69
2022-10-21T20:45:30.514Z,49.92
2022-10-21T20:47:32.349Z,50.49
2022-10-21T20:49:34.307Z,50.45
2022-10-21T20:51:38.119Z,50.27
2022-10-21T20:53:53.526Z,50.22
2022-10-21T20:55:56.309Z,49.81
2022-10-21T20:57:58.364Z,49.88
2022-10-21T21:00:00.495Z,49.88
2022-10-21T21:02:02.334Z,49.80
2022-10-21T21:04:08.481Z,50.32
2022-10-21T21:06:12.329Z,50.16
2022-10-21T21:08:14.192Z,49.89
2022-10-21T21:10:16.252Z,49.76
2022-10-21T21:12:18.403Z,49.71
2022-10-21T21:14:20.417Z,49.92
2022-10-21T21:16:25.391Z,49.97
2022-10-21T21:18:27.622Z,49.76
2022-10-21T21:20:29.729Z,50.15
2022-10-21T21:22:31.643Z,50.30
2022-10-21T21:24:33.655Z,50.35
2022-10-21T21:26:37.948Z,50.24
2022-10-21T21:29:42.257Z,51.28
2022-10-21T21:31:44.497Z,50.46
2022-10-21T21:33:46.345Z,50.52
2022-10-21T21:35:48.626Z,50.29
2022-10-21T21:37:50.739Z,50.28
2022-10-21T21:39:52.732Z,50.05
2022-10-21T21:41:54.571Z,50.15
2022-10-21T21:44:22.106Z,50.37
2022-10-21T21:46:25.248Z,49.85
2022-10-21T21:48:27.946Z,49.70
2022-10-21T21:50:29.877Z,49.80
2022-10-21T21:52:32.383Z,49.99
2022-10-21T21:54:34.220Z,49.98
2022-10-21T21:56:36.532Z,49.84
2022-10-21T21:58:39.595Z,49.84
2022-10-21T22:00:41.618Z,49.58
2022-10-21T22:02:44.162Z,49.82
2022-10-21T22:04:46.285Z,49.82
2022-10-21T22:06:48.392Z,50.16
2022-10-21T22:08:51.428Z,49.89
2022-10-21T22:10:53.536Z,49.63
2022-10-21T22:12:56.750Z,49.89
2022-10-21T22:14:58.849Z,49.35
2022-10-21T22:17:00.968Z,49.28
2022-10-21T22:19:02.940Z,49.79
2022-10-21T22:21:08.373Z,49.56
2022-10-21T22:23:10.234Z,49.82
2022-10-21T22:25:14.569Z,49.35
2022-10-21T22:27:16.561Z,49.44
2022-10-21T22:29:18.771Z,49.52
2022-10-21T22:31:28.947Z,49.30
2022-10-21T22:33:33.259Z,49.33
2022-10-21T22:35:38.828Z,49.18
2022-10-21T22:37:41.071Z,49.17
2022-10-21T22:39:43.376Z,49.64
2022-10-21T22:41:45.292Z,49.10
2022-10-21T22:43:47.375Z,49.23
2022-10-21T22:45:49.255Z,49.28
2022-10-21T22:47:51.085Z,49.64
2022-10-21T22:49:53.144Z,49.35
2022-10-21T22:51:55.142Z,49.37
2022-10-21T22:53:57.129Z,49.04
2022-10-21T22:55:59.416Z,49.35
2022-10-21T22:58:01.522Z,49.23
2022-10-21T23:00:04.380Z,49.47
2022-10-21T23:02:06.551Z,49.32
2022-10-21T23:04:10.051Z,49.69
2022-10-21T23:06:11.903Z,49.78
2022-10-21T23:08:18.283Z,49.97
2022-10-21T23:10:20.232Z,49.28
2022-10-21T23:12:22.114Z,49.65
2022-10-21T23:14:24.126Z,49.86
2022-10-21T23:16:26.091Z,49.98
2022-10-21T23:18:28.425Z,49.64
2022-10-21T23:20:30.452Z,49.96
2022-10-21T23:22:32.436Z,49.98
2022-10-21T23:24:34.276Z,49.86
2022-10-21T23:26:51.266Z,50.68
2022-10-21T23:28:53.277Z,50.15
2022-10-21T23:30:55.456Z,49.94
2022-10-21T23:32:57.377Z,49.86
2022-10-21T23:34:59.412Z,50.19
2022-10-21T23:37:01.333Z,49.85
2022-10-21T23:39:04.001Z,49.81
2022-10-21T23:41:05.886Z,49.71
2022-10-21T23:43:08.039Z,49.83
2022-10-21T23:45:11.538Z,50.84
2022-10-21T23:47:13.520Z,50.50
2022-10-21T23:49:15.547Z,50.50
2022-10-21T23:51:17.650Z,51.24
2022-10-21T23:53:19.645Z,50.74
2022-10-21T23:55:21.712Z,50.88
2022-10-21T23:57:23.911Z,50.68
2022-10-21T23:59:25.766Z,50.78
